Main page
METAR-TAF:

METAR-TAF

Airports :

Benbecula, Scotland

Benbecula Airport

latitude: 57-28N, longitude: 007-22W, elevation: 6 m

Current weather observation

The report was made 26 minutes ago, at 08:20 UTC
Wind 13 kt from the Southwest
Temperature 12°C
Humidity 88%
Pressure 1014 hPa
Visibility 10 km or more
Few clouds at a height of 1400 ft

METAR: EGPL 230820Z 22013KT 9999 FEW014 12/10 Q1014

Time: 09:46 (08:46 UTC)

Forecast

The report was made 43 minutes ago, at 08:03 UTC
Forecast valid from 23 at 09 UTC to 23 at 16 UTC
Wind 15 kt from the South/Southwest
Visibility 10 km or more
Few clouds at a height of 2000 ft
Probability 30% :
Temporary
from 23 at 15 UTC to 23 at 16 UTC
Broken clouds at a height of 1000 ft

TAF: EGPL 230803Z 2309/2316 21015KT 9999 FEW020 PROB30 TEMPO 2315/2316 BKN010

Weather observations and forecasts of more than 4000 airports (METAR and TAF reports).

The available stations are represented by yellow and red dots on the map.

Hover mouse over dot to see the name of the station.

Then click to see weather observations and forecasts.

To change the map : click on the green buttons with a black cross to zoom in, on the green button with a dash to zoom out, or on the green arrows for adjacent maps.


METAR-TAF: